createdAt,value
2018-06-04T00:00:24.393Z,0.00
2018-06-04T00:01:24.369Z,0.00
2018-06-04T00:02:24.355Z,0.00
2018-06-04T00:03:24.342Z,0.00
2018-06-04T00:04:24.335Z,0.00
2018-06-04T00:05:24.319Z,0.00
2018-06-04T00:06:24.301Z,0.00
2018-06-04T00:07:24.292Z,0.00
2018-06-04T00:08:24.285Z,0.00
2018-06-04T00:09:24.409Z,0.00
2018-06-04T00:10:24.248Z,0.00
2018-06-04T00:11:24.234Z,0.00
2018-06-04T00:12:24.220Z,0.00
2018-06-04T00:13:24.210Z,0.00
2018-06-04T00:14:24.197Z,0.00
2018-06-04T00:15:24.179Z,0.00
2018-06-04T00:16:24.166Z,0.00
2018-06-04T00:17:24.157Z,0.00
2018-06-04T00:18:24.139Z,0.00
2018-06-04T00:19:24.125Z,0.00
2018-06-04T00:20:24.165Z,0.00
2018-06-04T00:21:24.099Z,0.00
2018-06-04T00:22:24.090Z,0.00
2018-06-04T00:23:24.073Z,0.00
2018-06-04T00:24:24.055Z,0.00
2018-06-04T00:25:24.059Z,0.00
2018-06-04T00:26:24.031Z,0.00
2018-06-04T00:27:24.014Z,0.00
2018-06-04T00:28:24.007Z,0.00
2018-06-04T00:29:23.989Z,0.00
2018-06-04T00:30:23.971Z,0.00
2018-06-04T00:31:23.958Z,0.00
2018-06-04T00:32:24.002Z,0.00
2018-06-04T00:33:23.947Z,0.00
2018-06-04T00:34:23.920Z,0.00
2018-06-04T00:35:23.910Z,0.00
2018-06-04T00:36:23.895Z,0.00
2018-06-04T00:37:23.880Z,0.00
2018-06-04T00:38:23.866Z,0.00
2018-06-04T00:39:23.850Z,0.00
2018-06-04T00:40:23.840Z,0.00
2018-06-04T00:41:23.827Z,0.00
2018-06-04T00:42:23.817Z,0.00
2018-06-04T00:43:23.800Z,0.00
2018-06-04T00:44:23.782Z,0.00
2018-06-04T00:45:23.776Z,0.00
2018-06-04T00:46:23.759Z,0.00
2018-06-04T00:47:23.741Z,0.00
2018-06-04T00:48:23.731Z,0.00
2018-06-04T00:49:23.718Z,0.00
2018-06-04T00:50:23.705Z,0.00
2018-06-04T00:51:23.690Z,0.00
2018-06-04T00:52:23.680Z,0.00
2018-06-04T00:53:23.689Z,0.00
2018-06-04T00:54:23.668Z,0.00
2018-06-04T00:55:23.637Z,0.00
2018-06-04T00:56:23.623Z,0.00
2018-06-04T00:57:23.603Z,0.00
2018-06-04T00:58:23.591Z,0.00
2018-06-04T00:59:23.581Z,0.00
2018-06-04T01:00:23.573Z,0.00
2018-06-04T01:01:23.551Z,0.00
2018-06-04T01:02:23.539Z,0.00
2018-06-04T01:03:23.520Z,0.00
2018-06-04T01:04:23.510Z,0.00
2018-06-04T01:05:23.502Z,0.00
2018-06-04T01:06:23.478Z,0.00
2018-06-04T01:07:23.465Z,0.00
2018-06-04T01:08:23.461Z,0.00
2018-06-04T01:09:23.437Z,0.00
2018-06-04T01:10:23.430Z,0.00
2018-06-04T01:11:23.409Z,0.00
2018-06-04T01:12:23.401Z,0.00
2018-06-04T01:13:23.390Z,0.00
2018-06-04T01:14:23.372Z,0.00
2018-06-04T01:15:23.357Z,0.00
2018-06-04T01:16:23.406Z,0.00
2018-06-04T01:17:23.327Z,0.00
2018-06-04T01:18:23.313Z,0.00
2018-06-04T01:19:23.300Z,0.00
2018-06-04T01:20:23.288Z,0.00
2018-06-04T01:21:23.275Z,0.00
2018-06-04T01:22:23.259Z,0.00
2018-06-04T01:23:23.248Z,0.00
2018-06-04T01:24:23.234Z,0.00
2018-06-04T01:25:23.219Z,0.00
2018-06-04T01:26:23.209Z,0.00
2018-06-04T01:27:23.190Z,0.00
2018-06-04T01:28:23.177Z,0.00
2018-06-04T01:29:23.219Z,0.00
2018-06-04T01:30:23.148Z,0.00
2018-06-04T01:31:23.135Z,0.00
2018-06-04T01:32:23.129Z,0.00
2018-06-04T01:33:23.108Z,0.00
2018-06-04T01:34:23.097Z,0.00
2018-06-04T01:35:23.081Z,0.00
2018-06-04T01:36:23.068Z,0.00
2018-06-04T01:37:23.059Z,0.00
2018-06-04T01:38:23.038Z,0.00
2018-06-04T01:39:23.031Z,0.00
2018-06-04T01:40:23.009Z,0.00
2018-06-04T01:41:23.001Z,0.00
2018-06-04T01:42:22.978Z,0.00
2018-06-04T01:43:23.067Z,0.00
2018-06-04T01:44:22.953Z,0.00
2018-06-04T01:45:22.941Z,0.00
2018-06-04T01:46:22.922Z,0.00
2018-06-04T01:47:22.913Z,0.00
2018-06-04T01:48:22.898Z,0.00
2018-06-04T01:49:22.883Z,0.00
2018-06-04T01:50:22.866Z,0.00
2018-06-04T01:51:22.867Z,0.00
2018-06-04T01:52:22.843Z,0.00
2018-06-04T01:53:22.831Z,0.00
2018-06-04T01:54:22.816Z,0.00
2018-06-04T01:55:22.800Z,0.00
2018-06-04T01:56:22.795Z,0.00
2018-06-04T01:57:22.769Z,0.00
2018-06-04T01:58:22.756Z,0.00
2018-06-04T01:59:22.747Z,0.00
2018-06-04T02:00:22.730Z,0.00
2018-06-04T02:01:22.716Z,0.00
2018-06-04T02:02:22.700Z,0.00
2018-06-04T02:03:22.694Z,0.00
2018-06-04T02:04:22.689Z,0.00
2018-06-04T02:05:22.661Z,0.00
2018-06-04T02:06:22.645Z,0.00
2018-06-04T02:07:22.630Z,0.00
2018-06-04T02:08:22.621Z,0.00
2018-06-04T02:09:22.608Z,0.00
2018-06-04T02:10:22.593Z,0.00
2018-06-04T02:11:22.577Z,0.00
2018-06-04T02:12:22.567Z,0.00
2018-06-04T02:13:22.550Z,0.00
2018-06-04T02:14:22.532Z,0.00
2018-06-04T02:15:22.518Z,0.00
2018-06-04T02:16:22.514Z,0.00
2018-06-04T02:17:22.494Z,0.00
2018-06-04T02:18:22.518Z,0.00
2018-06-04T02:19:22.468Z,0.00
2018-06-04T02:20:22.451Z,0.00
2018-06-04T02:21:22.438Z,0.00
2018-06-04T02:22:22.422Z,0.00
2018-06-04T02:23:22.409Z,0.00
2018-06-04T02:24:22.392Z,0.00
2018-06-04T02:25:22.382Z,0.00
2018-06-04T02:26:22.372Z,0.00
2018-06-04T02:27:22.357Z,0.00
2018-06-04T02:28:22.341Z,0.00
2018-06-04T02:29:22.335Z,0.00
2018-06-04T02:30:22.314Z,0.00
2018-06-04T02:31:22.349Z,0.00
2018-06-04T02:32:22.281Z,0.00
2018-06-04T02:33:22.267Z,0.00
2018-06-04T02:34:22.251Z,0.00
2018-06-04T02:35:22.238Z,0.00
2018-06-04T02:36:22.225Z,0.00
2018-06-04T02:37:22.210Z,0.00
2018-06-04T02:38:22.194Z,0.00
2018-06-04T02:39:22.180Z,0.00
2018-06-04T02:40:22.172Z,0.00
2018-06-04T02:41:22.153Z,0.00
2018-06-04T02:42:22.139Z,0.00
2018-06-04T02:43:22.124Z,0.00
2018-06-04T02:44:22.114Z,0.00
2018-06-04T02:45:22.099Z,0.00
2018-06-04T02:46:22.083Z,0.00
2018-06-04T02:47:22.079Z,0.00
2018-06-04T02:48:22.053Z,0.00
2018-06-04T02:49:22.046Z,0.00
2018-06-04T02:50:22.076Z,0.00
2018-06-04T02:51:22.011Z,0.00
2018-06-04T02:52:21.997Z,0.00
2018-06-04T02:53:21.989Z,0.00
2018-06-04T02:54:21.967Z,0.00
2018-06-04T02:55:21.953Z,0.00
2018-06-04T02:56:21.941Z,0.00
2018-06-04T02:57:21.926Z,0.00
2018-06-04T02:58:21.918Z,0.00
2018-06-04T02:59:21.902Z,0.00
2018-06-04T03:00:21.895Z,0.00
2018-06-04T03:01:21.870Z,0.00
2018-06-04T03:02:21.854Z,0.00
2018-06-04T03:03:21.839Z,0.00
2018-06-04T03:04:21.827Z,0.00
2018-06-04T03:05:21.813Z,0.00
2018-06-04T03:06:21.799Z,0.00
2018-06-04T03:07:21.784Z,0.00
2018-06-04T03:08:21.772Z,0.00
2018-06-04T03:09:21.759Z,0.00
2018-06-04T03:10:21.741Z,0.00
2018-06-04T03:11:21.833Z,0.00
2018-06-04T03:12:21.716Z,0.00
2018-06-04T03:13:21.701Z,0.00
2018-06-04T03:14:21.688Z,0.00
2018-06-04T03:15:21.672Z,0.00
2018-06-04T03:16:21.654Z,0.00
2018-06-04T03:17:21.640Z,0.00
2018-06-04T03:18:21.624Z,0.00
2018-06-04T03:19:21.611Z,0.00
2018-06-04T03:20:21.601Z,0.00
2018-06-04T03:21:21.591Z,0.00
2018-06-04T03:22:21.570Z,0.00
2018-06-04T03:23:21.561Z,0.00
2018-06-04T03:24:21.570Z,0.00
2018-06-04T03:25:21.536Z,0.00
2018-06-04T03:26:21.514Z,0.00
2018-06-04T03:27:21.548Z,0.00
2018-06-04T03:28:21.489Z,0.00
2018-06-04T03:29:21.474Z,0.00
2018-06-04T03:30:21.455Z,0.00
2018-06-04T03:31:21.443Z,0.00
2018-06-04T03:32:21.430Z,0.00
2018-06-04T03:33:21.413Z,0.00
2018-06-04T03:34:21.406Z,0.00
2018-06-04T03:35:21.389Z,0.00
2018-06-04T03:36:21.371Z,0.00
2018-06-04T03:37:21.355Z,0.00
2018-06-04T03:38:21.346Z,0.00
2018-06-04T03:39:21.329Z,0.00
2018-06-04T03:40:21.322Z,0.00
2018-06-04T03:41:21.301Z,0.00
2018-06-04T03:42:21.285Z,0.00
2018-06-04T03:43:21.269Z,0.00
2018-06-04T03:44:21.261Z,0.00
2018-06-04T03:45:21.242Z,0.00
2018-06-04T03:46:21.231Z,0.00
2018-06-04T03:47:21.211Z,0.00
2018-06-04T03:48:21.203Z,0.00
2018-06-04T03:49:21.184Z,0.00
2018-06-04T03:50:21.173Z,0.00
2018-06-04T03:51:21.159Z,0.00
2018-06-04T03:52:21.143Z,0.00
2018-06-04T03:53:21.127Z,0.00
2018-06-04T03:54:21.112Z,0.00
2018-06-04T03:55:21.099Z,0.00
2018-06-04T03:56:21.085Z,0.00
2018-06-04T03:57:21.067Z,0.00
2018-06-04T03:58:21.057Z,0.00
2018-06-04T03:59:21.038Z,0.00
2018-06-04T04:00:21.046Z,0.00
2018-06-04T04:01:21.020Z,0.00
2018-06-04T04:02:21.002Z,0.00
2018-06-04T04:03:20.980Z,0.00
2018-06-04T04:04:20.970Z,0.00
2018-06-04T04:05:20.965Z,0.00
2018-06-04T04:06:20.940Z,0.00
2018-06-04T04:07:20.986Z,0.00
2018-06-04T04:08:20.975Z,0.00
2018-06-04T04:09:20.895Z,0.00
2018-06-04T04:10:20.884Z,0.00
2018-06-04T04:11:20.866Z,0.00
2018-06-04T04:12:20.856Z,0.00
2018-06-04T04:13:20.840Z,5.63
2018-06-04T04:14:20.827Z,5.63
2018-06-04T04:15:20.808Z,5.63
2018-06-04T04:16:20.802Z,5.63
2018-06-04T04:17:20.782Z,5.63
2018-06-04T04:18:20.769Z,5.63
2018-06-04T04:19:20.819Z,5.63
2018-06-04T04:20:20.737Z,5.63
2018-06-04T04:21:20.723Z,5.63
2018-06-04T04:22:20.713Z,5.63
2018-06-04T04:23:20.699Z,5.63
2018-06-04T04:24:20.680Z,5.63
2018-06-04T04:25:20.668Z,5.63
2018-06-04T04:26:20.653Z,5.63
2018-06-04T04:27:20.633Z,5.63
2018-06-04T04:28:20.620Z,5.63
2018-06-04T04:29:20.657Z,5.63
2018-06-04T04:30:20.593Z,5.63
2018-06-04T04:31:20.582Z,5.63
2018-06-04T04:32:20.563Z,5.63
2018-06-04T04:33:20.553Z,5.63
2018-06-04T04:34:20.534Z,5.63
2018-06-04T04:35:20.520Z,5.63
2018-06-04T04:36:20.508Z,5.63
2018-06-04T04:37:20.490Z,5.63
2018-06-04T04:38:20.484Z,5.63
2018-06-04T04:39:20.469Z,5.63
2018-06-04T04:40:20.448Z,5.63
2018-06-04T04:41:20.433Z,5.63
2018-06-04T04:42:20.430Z,5.63
2018-06-04T04:43:20.404Z,5.63
2018-06-04T04:44:20.392Z,5.63
2018-06-04T04:45:20.377Z,5.63
2018-06-04T04:46:20.360Z,5.63
2018-06-04T04:47:20.357Z,5.63
2018-06-04T04:48:20.333Z,5.63
2018-06-04T04:49:20.320Z,5.63
2018-06-04T04:50:20.381Z,5.63
2018-06-04T04:51:20.292Z,5.63
2018-06-04T04:52:20.283Z,5.63
2018-06-04T04:53:20.269Z,5.63
2018-06-04T04:54:20.250Z,5.63
2018-06-04T04:55:20.238Z,5.63
2018-06-04T04:56:20.221Z,5.63
2018-06-04T04:57:20.216Z,5.63
2018-06-04T04:58:20.200Z,5.63
2018-06-04T04:59:20.193Z,5.63
2018-06-04T05:00:20.161Z,5.63
2018-06-04T05:01:20.150Z,5.63
2018-06-04T05:02:20.136Z,5.63
2018-06-04T05:03:20.120Z,5.63
2018-06-04T05:04:20.110Z,5.63
2018-06-04T05:05:20.103Z,5.63
2018-06-04T05:06:20.221Z,5.63
2018-06-04T05:07:20.061Z,5.63
2018-06-04T05:08:20.059Z,5.63
2018-06-04T05:09:20.072Z,5.63
2018-06-04T05:10:20.020Z,5.63
2018-06-04T05:11:20.005Z,5.63
2018-06-04T05:12:19.998Z,5.63
2018-06-04T05:13:19.977Z,5.63
2018-06-04T05:14:19.962Z,5.63
2018-06-04T05:15:19.949Z,5.63
2018-06-04T05:16:19.942Z,5.63
2018-06-04T05:17:19.928Z,5.63
2018-06-04T05:18:19.905Z,11.25
2018-06-04T05:19:19.891Z,11.25
2018-06-04T05:20:19.881Z,11.25
2018-06-04T05:21:19.869Z,11.25
2018-06-04T05:22:19.850Z,11.25
2018-06-04T05:23:19.831Z,11.25
2018-06-04T05:24:19.829Z,11.25
2018-06-04T05:25:19.810Z,11.25
2018-06-04T05:26:19.790Z,11.25
2018-06-04T05:27:19.784Z,11.25
2018-06-04T05:28:19.821Z,11.25
2018-06-04T05:29:19.750Z,11.25
2018-06-04T05:30:19.735Z,11.25
2018-06-04T05:31:19.721Z,11.25
2018-06-04T05:32:19.713Z,11.25
2018-06-04T05:33:19.691Z,11.25
2018-06-04T05:34:19.684Z,11.25
2018-06-04T05:35:19.669Z,11.25
2018-06-04T05:36:19.654Z,11.25
2018-06-04T05:37:19.637Z,11.25
2018-06-04T05:38:19.620Z,11.25
2018-06-04T05:39:19.610Z,11.25
2018-06-04T05:40:19.597Z,11.25
2018-06-04T05:41:19.580Z,11.25
2018-06-04T05:42:19.600Z,11.25
2018-06-04T05:43:19.557Z,11.25
2018-06-04T05:44:19.545Z,11.25
2018-06-04T05:45:19.528Z,11.25
2018-06-04T05:46:19.510Z,11.25
2018-06-04T05:47:19.506Z,11.25
2018-06-04T05:48:19.486Z,11.25
2018-06-04T05:49:19.467Z,11.25
2018-06-04T05:50:19.457Z,11.25
2018-06-04T05:51:19.442Z,11.25
2018-06-04T05:52:19.533Z,11.25
2018-06-04T05:53:19.417Z,11.25
2018-06-04T05:54:19.398Z,11.25
2018-06-04T05:55:19.391Z,11.25
2018-06-04T05:56:19.418Z,11.25
2018-06-04T05:57:19.359Z,11.25
2018-06-04T05:58:19.343Z,11.25
2018-06-04T05:59:19.331Z,11.25
2018-06-04T06:00:19.324Z,11.25
2018-06-04T06:01:19.305Z,11.25
2018-06-04T06:02:19.289Z,11.25
2018-06-04T06:03:19.281Z,11.25
2018-06-04T06:04:19.273Z,11.25
2018-06-04T06:05:19.248Z,11.25
2018-06-04T06:06:19.252Z,11.25
2018-06-04T06:07:19.219Z,11.25
2018-06-04T06:08:19.318Z,11.25
2018-06-04T06:09:19.189Z,16.88
2018-06-04T06:10:19.178Z,16.88
2018-06-04T06:11:19.164Z,16.88
2018-06-04T06:12:19.149Z,16.88
2018-06-04T06:13:19.138Z,16.88
2018-06-04T06:14:19.185Z,16.88
2018-06-04T06:15:19.107Z,16.88
2018-06-04T06:16:19.102Z,16.88
2018-06-04T06:17:19.081Z,16.88
2018-06-04T06:18:19.068Z,16.88
2018-06-04T06:19:19.051Z,16.88
2018-06-04T06:20:19.039Z,16.88
2018-06-04T06:21:19.029Z,16.88
2018-06-04T06:22:19.015Z,16.88
2018-06-04T06:23:18.997Z,16.88
2018-06-04T06:24:18.986Z,16.88
2018-06-04T06:25:18.985Z,16.88
2018-06-04T06:26:18.965Z,16.88
2018-06-04T06:27:18.942Z,16.88
2018-06-04T06:28:18.932Z,16.88
2018-06-04T06:29:18.919Z,16.88
2018-06-04T06:30:18.902Z,16.88
2018-06-04T06:31:18.889Z,16.88
2018-06-04T06:32:18.890Z,16.88
2018-06-04T06:33:18.859Z,16.88
2018-06-04T06:34:18.853Z,16.88
2018-06-04T06:35:18.932Z,16.88
2018-06-04T06:36:18.821Z,22.50
2018-06-04T06:37:18.808Z,22.50
2018-06-04T06:38:18.792Z,22.50
2018-06-04T06:39:18.785Z,22.50
2018-06-04T06:40:18.766Z,22.50
2018-06-04T06:41:18.751Z,22.50
2018-06-04T06:42:18.735Z,22.50
2018-06-04T06:43:18.733Z,22.50
2018-06-04T06:44:18.713Z,22.50
2018-06-04T06:45:18.700Z,22.50
2018-06-04T06:46:18.680Z,22.50
2018-06-04T06:47:18.667Z,22.50
2018-06-04T06:48:18.655Z,22.50
2018-06-04T06:49:18.638Z,22.50
2018-06-04T06:50:18.625Z,22.50
2018-06-04T06:51:18.615Z,22.50
2018-06-04T06:52:18.599Z,22.50
2018-06-04T06:53:18.593Z,22.50
2018-06-04T06:54:18.576Z,22.50
2018-06-04T06:55:18.567Z,22.50
2018-06-04T06:56:18.550Z,22.50
2018-06-04T06:57:18.532Z,22.50
2018-06-04T06:58:18.520Z,22.50
2018-06-04T06:59:18.504Z,22.50
2018-06-04T07:00:18.491Z,22.50
2018-06-04T07:01:18.481Z,22.50
2018-06-04T07:02:18.466Z,22.50
2018-06-04T07:03:18.451Z,22.50
2018-06-04T07:04:18.448Z,22.50
2018-06-04T07:05:18.423Z,22.50
2018-06-04T07:06:18.419Z,22.50
2018-06-04T07:07:18.412Z,22.50
2018-06-04T07:08:18.381Z,22.50
2018-06-04T07:09:18.371Z,22.50
2018-06-04T07:10:18.459Z,28.13
2018-06-04T07:11:18.341Z,28.13
2018-06-04T07:12:18.328Z,28.13
2018-06-04T07:13:18.316Z,28.13
2018-06-04T07:14:18.509Z,28.13
2018-06-04T07:15:18.286Z,28.13
2018-06-04T07:16:18.279Z,28.13
2018-06-04T07:17:18.259Z,28.13
2018-06-04T07:18:18.245Z,28.13
2018-06-04T07:19:18.237Z,28.13
2018-06-04T07:20:18.220Z,33.75
2018-06-04T07:21:18.203Z,33.75
2018-06-04T07:22:18.190Z,33.75
2018-06-04T07:23:18.187Z,33.75
2018-06-04T07:24:18.167Z,33.75
2018-06-04T07:25:18.155Z,33.75
2018-06-04T07:26:18.140Z,33.75
2018-06-04T07:27:18.124Z,33.75
2018-06-04T07:28:18.108Z,39.38
2018-06-04T07:29:18.096Z,39.38
2018-06-04T07:30:18.084Z,39.38
2018-06-04T07:31:18.072Z,39.38
2018-06-04T07:32:18.060Z,39.38
2018-06-04T07:33:18.054Z,39.38
2018-06-04T07:34:18.085Z,39.38
2018-06-04T07:35:18.016Z,39.38
2018-06-04T07:36:18.005Z,39.38
2018-06-04T07:37:18.041Z,39.38
2018-06-04T07:38:17.979Z,39.38
2018-06-04T07:39:17.966Z,39.38
2018-06-04T07:40:17.952Z,45.00
2018-06-04T07:41:17.974Z,45.00
2018-06-04T07:42:17.923Z,45.00
2018-06-04T07:43:17.914Z,45.00
2018-06-04T07:44:17.897Z,50.63
2018-06-04T07:45:17.884Z,50.63
2018-06-04T07:46:17.880Z,50.63
2018-06-04T07:47:17.860Z,50.63
2018-06-04T07:48:17.852Z,56.25
2018-06-04T07:49:17.833Z,56.25
2018-06-04T07:50:17.824Z,56.25
2018-06-04T07:51:17.806Z,56.25
2018-06-04T07:52:17.791Z,56.25
2018-06-04T07:53:17.827Z,56.25
2018-06-04T07:54:17.772Z,56.25
2018-06-04T07:55:17.754Z,56.25
2018-06-04T07:56:17.741Z,56.25
2018-06-04T07:57:17.748Z,56.25
2018-06-04T07:58:17.717Z,56.25
2018-06-04T07:59:17.710Z,56.25
2018-06-04T08:00:17.692Z,61.88
2018-06-04T08:01:17.681Z,61.88
2018-06-04T08:02:17.668Z,61.88
2018-06-04T08:03:17.650Z,61.88
2018-06-04T08:04:17.658Z,61.88
2018-06-04T08:05:17.627Z,61.88
2018-06-04T08:06:17.647Z,61.88
2018-06-04T08:07:17.603Z,61.88
2018-06-04T08:08:17.586Z,61.88
2018-06-04T08:09:17.575Z,61.88
2018-06-04T08:10:17.637Z,61.88
2018-06-04T08:11:17.553Z,61.88
2018-06-04T08:12:17.540Z,61.88
2018-06-04T08:13:17.525Z,67.50
2018-06-04T08:14:17.514Z,67.50
2018-06-04T08:15:17.502Z,67.50
2018-06-04T08:16:17.490Z,67.50
2018-06-04T08:17:17.478Z,56.25
2018-06-04T08:18:17.461Z,28.13
2018-06-04T08:19:17.451Z,28.13
2018-06-04T08:20:17.438Z,67.50
2018-06-04T08:21:17.423Z,67.50
2018-06-04T08:22:17.409Z,28.13
2018-06-04T08:23:17.400Z,61.88
2018-06-04T08:24:17.387Z,67.50
2018-06-04T08:25:17.383Z,67.50
2018-06-04T08:26:17.371Z,67.50
2018-06-04T08:27:17.359Z,67.50
2018-06-04T08:28:17.333Z,67.50
2018-06-04T08:29:17.398Z,61.88
2018-06-04T08:30:17.309Z,22.50
2018-06-04T08:31:17.302Z,22.50
2018-06-04T08:32:17.288Z,22.50
2018-06-04T08:33:17.330Z,22.50
2018-06-04T08:34:17.259Z,22.50
2018-06-04T08:35:17.247Z,28.13
2018-06-04T08:36:17.239Z,73.13
2018-06-04T08:37:17.225Z,33.75
2018-06-04T08:38:17.211Z,28.13
2018-06-04T08:39:17.199Z,67.50
2018-06-04T08:40:17.210Z,73.13
2018-06-04T08:41:17.175Z,73.13
2018-06-04T08:42:17.161Z,73.13
2018-06-04T08:43:17.160Z,73.13
2018-06-04T08:44:17.138Z,78.75
2018-06-04T08:45:17.133Z,78.75
2018-06-04T08:46:17.112Z,78.75
2018-06-04T08:47:17.105Z,78.75
2018-06-04T08:48:17.089Z,78.75
2018-06-04T08:49:17.081Z,78.75
2018-06-04T08:50:17.064Z,28.13
2018-06-04T08:51:17.049Z,67.50
2018-06-04T08:52:17.041Z,73.13
2018-06-04T08:53:17.026Z,78.75
2018-06-04T08:54:17.016Z,78.75
2018-06-04T08:55:17.000Z,84.38
2018-06-04T08:56:17.053Z,78.75
2018-06-04T08:57:16.984Z,33.75
2018-06-04T08:58:16.967Z,78.75
2018-06-04T08:59:16.950Z,78.75
2018-06-04T09:00:16.937Z,78.75
2018-06-04T09:01:16.934Z,78.75
2018-06-04T09:02:16.918Z,78.75
2018-06-04T09:03:16.904Z,78.75
2018-06-04T09:04:16.891Z,56.25
2018-06-04T09:05:16.883Z,67.50
2018-06-04T09:06:16.868Z,73.13
2018-06-04T09:07:16.865Z,61.88
2018-06-04T09:08:16.846Z,39.38
2018-06-04T09:09:16.833Z,22.50
2018-06-04T09:10:16.823Z,22.50
2018-06-04T09:11:16.807Z,78.75
2018-06-04T09:12:16.799Z,33.75
2018-06-04T09:13:16.789Z,22.50
2018-06-04T09:14:16.768Z,28.13
2018-06-04T09:15:16.761Z,28.13
2018-06-04T09:16:16.746Z,22.50
2018-06-04T09:17:16.748Z,22.50
2018-06-04T09:18:16.731Z,28.13
2018-06-04T09:19:16.708Z,78.75
2018-06-04T09:20:16.705Z,78.75
2018-06-04T09:21:16.689Z,22.50
2018-06-04T09:22:16.676Z,22.50
2018-06-04T09:23:16.780Z,22.50
2018-06-04T09:24:16.651Z,28.13
2018-06-04T09:25:16.639Z,39.38
2018-06-04T09:26:16.631Z,33.75
2018-06-04T09:27:16.615Z,33.75
2018-06-04T09:28:16.600Z,56.25
2018-06-04T09:29:16.591Z,78.75
2018-06-04T09:30:16.575Z,33.75
2018-06-04T09:31:16.575Z,33.75
2018-06-04T09:32:16.598Z,28.13
2018-06-04T09:33:16.542Z,33.75
2018-06-04T09:34:16.525Z,67.50
2018-06-04T09:35:16.525Z,78.75
2018-06-04T09:36:16.503Z,84.38
2018-06-04T09:37:16.489Z,84.38
2018-06-04T09:38:16.480Z,84.38
2018-06-04T09:39:16.464Z,73.13
2018-06-04T09:40:16.461Z,50.63
2018-06-04T09:41:16.441Z,45.00
2018-06-04T09:42:16.577Z,84.38
2018-06-04T09:43:16.415Z,84.38
2018-06-04T09:44:16.407Z,90.00
2018-06-04T09:45:16.395Z,95.63
2018-06-04T09:46:16.383Z,90.00
2018-06-04T09:47:16.374Z,67.50
2018-06-04T09:48:16.354Z,33.75
2018-06-04T09:49:16.350Z,33.75
2018-06-04T09:50:16.336Z,39.38
2018-06-04T09:51:16.324Z,39.38
2018-06-04T09:52:16.306Z,56.25
2018-06-04T09:53:16.302Z,84.38
2018-06-04T09:54:16.282Z,61.88
2018-06-04T09:55:16.281Z,39.38
2018-06-04T09:56:16.259Z,61.88
2018-06-04T09:57:16.244Z,73.13
2018-06-04T09:58:16.232Z,50.63
2018-06-04T09:59:16.219Z,61.88
2018-06-04T10:00:16.209Z,73.13
2018-06-04T10:01:16.197Z,33.75
2018-06-04T10:02:16.188Z,28.13
2018-06-04T10:03:16.176Z,22.50
2018-06-04T10:04:16.170Z,22.50
2018-06-04T10:05:16.150Z,28.13
2018-06-04T10:06:16.191Z,84.38
2018-06-04T10:07:16.128Z,78.75
2018-06-04T10:08:16.114Z,33.75
2018-06-04T10:09:16.100Z,28.13
2018-06-04T10:10:16.093Z,33.75
2018-06-04T10:11:16.078Z,33.75
2018-06-04T10:12:16.067Z,45.00
2018-06-04T10:13:16.069Z,73.13
2018-06-04T10:14:16.051Z,39.38
2018-06-04T10:15:16.032Z,39.38
2018-06-04T10:16:16.026Z,33.75
2018-06-04T10:17:16.007Z,33.75
2018-06-04T10:18:15.997Z,33.75
2018-06-04T10:19:15.992Z,39.38
2018-06-04T10:20:15.970Z,39.38
2018-06-04T10:21:15.956Z,39.38
2018-06-04T10:22:15.947Z,50.63
2018-06-04T10:23:15.934Z,95.63
2018-06-04T10:24:15.919Z,90.00
2018-06-04T10:25:15.915Z,84.38
2018-06-04T10:26:15.904Z,84.38
2018-06-04T10:27:15.888Z,78.75
2018-06-04T10:28:15.873Z,33.75
2018-06-04T10:29:15.859Z,28.13
2018-06-04T10:30:15.849Z,28.13
2018-06-04T10:31:15.838Z,28.13
2018-06-04T10:32:15.824Z,28.13
2018-06-04T10:33:15.826Z,28.13
2018-06-04T10:34:15.804Z,28.13
2018-06-04T10:35:15.938Z,33.75
2018-06-04T10:36:15.777Z,73.13
2018-06-04T10:37:15.760Z,73.13
2018-06-04T10:38:15.781Z,61.88
2018-06-04T10:39:15.738Z,61.88
2018-06-04T10:40:15.724Z,84.38
2018-06-04T10:41:15.713Z,84.38
2018-06-04T10:42:15.700Z,90.00
2018-06-04T10:43:15.689Z,90.00
2018-06-04T10:44:15.674Z,95.63
2018-06-04T10:45:15.666Z,95.63
2018-06-04T10:46:15.650Z,95.63
2018-06-04T10:47:15.639Z,90.00
2018-06-04T10:48:15.626Z,67.50
2018-06-04T10:49:15.616Z,45.00
2018-06-04T10:50:15.602Z,33.75
2018-06-04T10:51:15.704Z,28.13
2018-06-04T10:52:15.579Z,22.50
2018-06-04T10:53:15.573Z,22.50
2018-06-04T10:54:15.566Z,22.50
2018-06-04T10:55:15.547Z,22.50
2018-06-04T10:56:15.529Z,22.50
2018-06-04T10:57:15.524Z,22.50
2018-06-04T10:58:15.513Z,28.13
2018-06-04T10:59:15.501Z,28.13
2018-06-04T11:00:15.485Z,33.75
2018-06-04T11:01:15.473Z,33.75
2018-06-04T11:02:15.483Z,39.38
2018-06-04T11:03:15.455Z,39.38
2018-06-04T11:04:15.436Z,45.00
2018-06-04T11:05:15.420Z,39.38
2018-06-04T11:06:15.413Z,33.75
2018-06-04T11:07:15.401Z,39.38
2018-06-04T11:08:15.710Z,39.38
2018-06-04T11:09:15.373Z,39.38
2018-06-04T11:10:15.360Z,39.38
2018-06-04T11:11:15.351Z,90.00
2018-06-04T11:12:15.347Z,95.63
2018-06-04T11:13:15.325Z,95.63
2018-06-04T11:14:15.311Z,95.63
2018-06-04T11:15:15.303Z,84.38
2018-06-04T11:16:15.287Z,39.38
2018-06-04T11:17:15.283Z,39.38
2018-06-04T11:18:15.273Z,39.38
2018-06-04T11:19:15.250Z,50.63
2018-06-04T11:20:15.239Z,67.50
2018-06-04T11:21:15.279Z,84.38
2018-06-04T11:22:15.229Z,67.50
2018-06-04T11:23:15.207Z,90.00
2018-06-04T11:24:15.190Z,90.00
2018-06-04T11:25:15.181Z,90.00
2018-06-04T11:26:15.165Z,90.00
2018-06-04T11:27:15.166Z,90.00
2018-06-04T11:28:15.206Z,90.00
2018-06-04T11:29:15.133Z,90.00
2018-06-04T11:30:15.124Z,84.38
2018-06-04T11:31:15.108Z,84.38
2018-06-04T11:32:15.098Z,45.00
2018-06-04T11:33:15.090Z,39.38
2018-06-04T11:34:15.070Z,39.38
2018-06-04T11:35:15.062Z,39.38
2018-06-04T11:36:15.050Z,45.00
2018-06-04T11:37:15.038Z,45.00
2018-06-04T11:38:15.031Z,56.25
2018-06-04T11:39:15.026Z,90.00
2018-06-04T11:40:15.006Z,90.00
2018-06-04T11:41:14.988Z,67.50
2018-06-04T11:42:14.986Z,45.00
2018-06-04T11:43:14.973Z,33.75
2018-06-04T11:44:14.956Z,39.38
2018-06-04T11:45:14.940Z,33.75
2018-06-04T11:46:14.933Z,33.75
2018-06-04T11:47:15.023Z,33.75
2018-06-04T11:48:14.907Z,39.38
2018-06-04T11:49:14.906Z,45.00
2018-06-04T11:50:14.884Z,90.00
2018-06-04T11:51:14.963Z,73.13
2018-06-04T11:52:14.860Z,90.00
2018-06-04T11:53:14.853Z,45.00
2018-06-04T11:54:14.835Z,73.13
2018-06-04T11:55:14.926Z,90.00
2018-06-04T11:56:14.810Z,45.00
2018-06-04T11:57:14.801Z,39.38
2018-06-04T11:58:14.790Z,33.75
2018-06-04T11:59:14.783Z,45.00
2018-06-04T12:00:14.770Z,84.38
2018-06-04T12:01:14.752Z,95.63
2018-06-04T12:02:14.739Z,90.00
2018-06-04T12:03:14.729Z,90.00
2018-06-04T12:04:14.715Z,73.13
2018-06-04T12:05:14.721Z,90.00
2018-06-04T12:06:14.694Z,56.25
2018-06-04T12:07:14.677Z,56.25
2018-06-04T12:08:14.668Z,90.00
2018-06-04T12:09:14.661Z,95.63
2018-06-04T12:10:14.646Z,95.63
2018-06-04T12:11:14.734Z,78.75
2018-06-04T12:12:14.630Z,33.75
2018-06-04T12:13:14.622Z,33.75
2018-06-04T12:14:14.655Z,33.75
2018-06-04T12:15:14.594Z,45.00
2018-06-04T12:16:14.574Z,95.63
2018-06-04T12:17:14.564Z,95.63
2018-06-04T12:18:14.558Z,95.63
2018-06-04T12:19:14.542Z,84.38
2018-06-04T12:20:14.526Z,73.13
2018-06-04T12:21:14.520Z,90.00
2018-06-04T12:22:14.502Z,84.38
2018-06-04T12:23:14.488Z,50.63
2018-06-04T12:24:14.479Z,39.38
2018-06-04T12:25:14.469Z,39.38
2018-06-04T12:26:14.454Z,45.00
2018-06-04T12:27:14.550Z,95.63
2018-06-04T12:28:14.438Z,101.25
2018-06-04T12:29:14.420Z,95.63
2018-06-04T12:30:14.418Z,95.63
2018-06-04T12:31:14.393Z,90.00
2018-06-04T12:32:14.414Z,39.38
2018-06-04T12:33:14.378Z,33.75
2018-06-04T12:34:14.363Z,33.75
2018-06-04T12:35:14.354Z,33.75
2018-06-04T12:36:14.338Z,33.75
2018-06-04T12:37:14.327Z,39.38
2018-06-04T12:38:14.322Z,90.00
2018-06-04T12:39:14.301Z,90.00
2018-06-04T12:40:14.293Z,95.63
2018-06-04T12:41:14.296Z,95.63
2018-06-04T12:42:14.269Z,95.63
2018-06-04T12:43:14.259Z,95.63
2018-06-04T12:44:14.247Z,90.00
2018-06-04T12:45:14.231Z,61.88
2018-06-04T12:46:14.219Z,45.00
2018-06-04T12:47:14.212Z,67.50
2018-06-04T12:48:14.359Z,90.00
2018-06-04T12:49:14.235Z,95.63
2018-06-04T12:50:14.172Z,95.63
2018-06-04T12:51:14.163Z,95.63
2018-06-04T12:52:14.150Z,90.00
2018-06-04T12:53:14.152Z,39.38
2018-06-04T12:54:14.123Z,33.75
2018-06-04T12:55:14.118Z,28.13
2018-06-04T12:56:14.113Z,28.13
2018-06-04T12:57:14.093Z,28.13
2018-06-04T12:58:14.079Z,28.13
2018-06-04T12:59:14.080Z,33.75
2018-06-04T13:00:14.054Z,95.63
2018-06-04T13:01:14.054Z,95.63
2018-06-04T13:02:14.039Z,90.00